createdAt,value
2023-05-20T00:01:54.389Z,4.70
2023-05-20T00:04:23.802Z,4.53
2023-05-20T00:06:51.759Z,6.93
2023-05-20T00:09:19.786Z,6.00
2023-05-20T00:11:47.891Z,4.03
2023-05-20T00:14:15.843Z,6.35
2023-05-20T00:16:44.277Z,5.07
2023-05-20T00:19:12.263Z,3.63
2023-05-20T00:21:41.557Z,5.05
2023-05-20T00:24:09.490Z,6.53
2023-05-20T00:26:37.391Z,4.90
2023-05-20T00:29:05.404Z,6.15
2023-05-20T00:31:33.509Z,8.88
2023-05-20T00:34:01.584Z,5.65
2023-05-20T00:36:29.568Z,6.47
2023-05-20T00:38:58.872Z,6.30
2023-05-20T00:41:26.861Z,3.88
2023-05-20T00:43:55.643Z,4.88
2023-05-20T00:46:25.308Z,4.38
2023-05-20T00:48:53.766Z,4.40
2023-05-20T00:51:22.582Z,6.32
2023-05-20T00:53:51.523Z,11.07
2023-05-20T00:56:22.096Z,4.80
2023-05-20T00:58:50.451Z,4.60
2023-05-20T01:01:18.332Z,5.75
2023-05-20T01:03:46.379Z,7.40
2023-05-20T01:06:14.295Z,7.13
2023-05-20T01:08:42.482Z,4.78
2023-05-20T01:11:16.319Z,5.47
2023-05-20T01:13:48.793Z,5.40
2023-05-20T01:16:19.534Z,4.90
2023-05-20T01:18:49.391Z,18.65
2023-05-20T01:21:18.634Z,6.85
2023-05-20T01:26:29.793Z,6.78
2023-05-20T01:28:58.113Z,8.57
2023-05-20T01:31:30.881Z,6.05
2023-05-20T01:33:59.658Z,7.38
2023-05-20T01:36:30.015Z,8.45
2023-05-20T01:38:59.913Z,10.55
2023-05-20T01:41:30.188Z,4.68
2023-05-20T01:43:58.445Z,7.38
2023-05-20T01:46:26.481Z,6.25
2023-05-20T01:48:54.519Z,5.22
2023-05-20T01:51:22.406Z,4.82
2023-05-20T01:53:50.558Z,8.10
2023-05-20T01:56:19.991Z,4.97
2023-05-20T01:58:47.982Z,16.33
2023-05-20T02:01:16.148Z,4.45
2023-05-20T02:03:45.030Z,9.05
2023-05-20T02:06:13.052Z,7.63
2023-05-20T02:08:40.987Z,14.55
2023-05-20T02:11:08.988Z,9.77
2023-05-20T02:13:40.258Z,5.50
2023-05-20T02:16:08.604Z,5.78
2023-05-20T02:18:36.556Z,5.18
2023-05-20T02:21:05.109Z,5.22
2023-05-20T02:23:33.149Z,7.85
2023-05-20T02:26:01.199Z,16.75
2023-05-20T02:28:29.523Z,8.57
2023-05-20T02:30:58.788Z,5.63
2023-05-20T02:33:29.138Z,8.20
2023-05-20T02:35:57.742Z,6.78
2023-05-20T02:38:26.579Z,5.80
2023-05-20T02:40:54.721Z,9.55
2023-05-20T02:43:22.798Z,10.75
2023-05-20T02:45:50.774Z,6.55
2023-05-20T02:48:20.054Z,6.18
2023-05-20T02:50:49.147Z,6.18
2023-05-20T02:53:17.112Z,5.68
2023-05-20T02:55:47.344Z,5.82
2023-05-20T02:58:15.523Z,6.30
2023-05-20T03:00:43.511Z,9.13
2023-05-20T03:03:13.609Z,5.82
2023-05-20T03:05:46.086Z,8.25
2023-05-20T03:08:15.060Z,9.60
2023-05-20T03:10:43.084Z,9.73
2023-05-20T03:13:11.530Z,7.80
2023-05-20T03:15:39.886Z,4.85
2023-05-20T03:18:08.674Z,6.88
2023-05-20T03:20:38.330Z,6.70
2023-05-20T03:23:09.282Z,8.25
2023-05-20T03:25:38.709Z,8.63
2023-05-20T03:28:06.927Z,9.30
2023-05-20T03:30:37.844Z,9.90
2023-05-20T03:33:06.415Z,9.13
2023-05-20T03:35:34.965Z,9.70
2023-05-20T03:38:03.244Z,6.78
2023-05-20T03:40:33.424Z,9.07
2023-05-20T03:43:01.451Z,10.05
2023-05-20T03:45:30.588Z,8.40
2023-05-20T03:48:06.159Z,5.63
2023-05-20T03:50:35.981Z,10.13
2023-05-20T03:53:04.204Z,7.85
2023-05-20T03:55:40.049Z,6.55
2023-05-20T03:58:08.620Z,8.50
2023-05-20T04:00:37.051Z,9.20
2023-05-20T04:03:05.913Z,5.68
2023-05-20T04:05:34.185Z,5.47
2023-05-20T04:08:05.034Z,7.38
2023-05-20T04:10:34.071Z,5.53
2023-05-20T04:13:03.302Z,8.75
2023-05-20T04:15:31.331Z,9.50
2023-05-20T04:18:01.383Z,6.97
2023-05-20T04:20:29.651Z,10.40
2023-05-20T04:22:59.240Z,11.05
2023-05-20T04:25:27.500Z,7.90
2023-05-20T04:27:57.730Z,7.63
2023-05-20T04:30:27.518Z,7.88
2023-05-20T04:32:55.941Z,7.13
2023-05-20T04:35:26.201Z,6.97
2023-05-20T04:37:56.277Z,6.47
2023-05-20T04:40:24.534Z,7.55
2023-05-20T04:42:53.714Z,8.13
2023-05-20T04:45:23.330Z,12.27
2023-05-20T04:47:53.442Z,6.95
2023-05-20T04:50:22.102Z,8.43
2023-05-20T04:52:50.708Z,6.47
2023-05-20T04:55:19.780Z,7.88
2023-05-20T04:57:47.786Z,8.85
2023-05-20T05:00:16.297Z,8.75
2023-05-20T05:02:44.217Z,8.75
2023-05-20T05:05:13.673Z,10.15
2023-05-20T05:07:41.592Z,7.90
2023-05-20T05:10:10.237Z,7.25
2023-05-20T05:12:38.180Z,9.70
2023-05-20T05:15:07.146Z,10.50
2023-05-20T05:17:35.187Z,9.30
2023-05-20T05:20:03.462Z,6.90
2023-05-20T05:22:36.920Z,9.23
2023-05-20T05:25:05.037Z,6.47
2023-05-20T05:27:33.019Z,7.82
2023-05-20T05:30:01.886Z,9.43
2023-05-20T05:32:30.414Z,10.00
2023-05-20T05:34:58.539Z,6.47
2023-05-20T05:37:27.007Z,8.10
2023-05-20T05:39:56.580Z,9.20
2023-05-20T05:42:24.990Z,7.95
2023-05-20T05:44:53.620Z,8.88
2023-05-20T05:47:23.045Z,9.93
2023-05-20T05:49:51.862Z,7.88
2023-05-20T05:52:19.761Z,7.85
2023-05-20T05:54:47.699Z,8.73
2023-05-20T05:57:17.119Z,13.02
2023-05-20T05:59:45.232Z,9.02
2023-05-20T06:02:14.618Z,9.93
2023-05-20T06:04:43.116Z,12.00
2023-05-20T06:07:12.385Z,10.68
2023-05-20T06:09:40.577Z,7.68
2023-05-20T06:12:09.224Z,11.00
2023-05-20T06:14:38.852Z,12.18
2023-05-20T06:17:07.235Z,8.48
2023-05-20T06:19:35.692Z,8.70
2023-05-20T06:22:04.113Z,12.85
2023-05-20T06:24:34.630Z,7.95
2023-05-20T06:27:04.098Z,9.32
2023-05-20T06:29:32.132Z,9.85
2023-05-20T06:32:02.473Z,9.70
2023-05-20T06:34:30.836Z,14.02
2023-05-20T06:36:58.750Z,12.88
2023-05-20T06:39:26.848Z,9.77
2023-05-20T06:41:55.286Z,8.68
2023-05-20T06:44:30.551Z,9.50
2023-05-20T06:47:19.087Z,8.85
2023-05-20T06:49:49.224Z,8.20
2023-05-20T06:52:17.381Z,11.35
2023-05-20T06:54:47.899Z,9.93
2023-05-20T06:57:16.281Z,9.05
2023-05-20T06:59:44.259Z,9.43
2023-05-20T07:02:12.484Z,9.40
2023-05-20T07:04:42.400Z,10.52
2023-05-20T07:07:10.476Z,10.00
2023-05-20T07:09:39.177Z,15.23
2023-05-20T07:12:09.065Z,10.75
2023-05-20T07:14:37.524Z,9.75
2023-05-20T07:17:07.113Z,10.27
2023-05-20T07:19:35.348Z,10.57
2023-05-20T07:22:04.905Z,12.02
2023-05-20T07:24:42.402Z,9.75
2023-05-20T07:27:11.512Z,11.40
2023-05-20T07:29:39.905Z,12.80
2023-05-20T07:32:10.017Z,11.55
2023-05-20T07:34:38.968Z,10.65
2023-05-20T07:37:10.074Z,9.50
2023-05-20T07:39:38.758Z,8.90
2023-05-20T07:42:08.146Z,7.38
2023-05-20T07:44:41.158Z,9.80
2023-05-20T07:47:09.428Z,7.75
2023-05-20T07:49:37.601Z,8.00
2023-05-20T07:52:06.346Z,8.13
2023-05-20T07:54:36.610Z,6.88
2023-05-20T07:57:04.704Z,10.65
2023-05-20T07:59:33.023Z,9.68
2023-05-20T08:02:01.124Z,8.77
2023-05-20T08:04:30.166Z,9.90
2023-05-20T08:06:58.916Z,9.75
2023-05-20T08:09:43.894Z,8.93
2023-05-20T08:12:12.130Z,8.90
2023-05-20T08:14:41.785Z,8.65
2023-05-20T08:17:09.819Z,9.88
2023-05-20T08:19:38.426Z,9.00
2023-05-20T08:22:07.949Z,10.82
2023-05-20T08:24:36.384Z,7.47
2023-05-20T08:27:06.445Z,6.68
2023-05-20T08:29:34.580Z,9.43
2023-05-20T08:32:03.034Z,10.38
2023-05-20T08:34:30.990Z,9.48
2023-05-20T08:36:58.853Z,7.72
2023-05-20T08:39:27.414Z,9.18
2023-05-20T08:41:58.880Z,11.00
2023-05-20T08:44:29.403Z,7.88
2023-05-20T08:46:58.903Z,7.10
2023-05-20T08:49:27.294Z,7.95
2023-05-20T08:51:55.423Z,7.00
2023-05-20T08:54:26.680Z,6.43
2023-05-20T08:56:55.931Z,7.65
2023-05-20T08:59:24.058Z,8.07
2023-05-20T09:01:53.404Z,7.60
2023-05-20T09:04:21.498Z,6.90
2023-05-20T09:06:52.087Z,6.43
2023-05-20T09:09:20.137Z,8.75
2023-05-20T09:11:48.213Z,10.55
2023-05-20T09:14:16.180Z,9.80
2023-05-20T09:16:44.271Z,9.10
2023-05-20T09:19:13.696Z,9.70
2023-05-20T09:21:43.027Z,6.03
2023-05-20T09:24:11.048Z,6.32
2023-05-20T09:26:38.989Z,8.40
2023-05-20T09:29:08.363Z,8.32
2023-05-20T09:31:39.083Z,13.55
2023-05-20T09:34:08.062Z,8.95
2023-05-20T09:36:37.520Z,7.45
2023-05-20T09:39:06.820Z,7.15
2023-05-20T09:41:39.618Z,6.45
2023-05-20T09:44:07.788Z,7.15
2023-05-20T09:46:37.632Z,12.05
2023-05-20T09:49:07.916Z,8.95
2023-05-20T09:51:37.433Z,9.23
2023-05-20T09:54:08.464Z,11.57
2023-05-20T09:56:38.238Z,9.80
2023-05-20T09:59:06.867Z,12.90
2023-05-20T10:01:34.921Z,11.77
2023-05-20T10:04:05.206Z,10.23
2023-05-20T10:06:57.367Z,10.70
2023-05-20T10:09:38.835Z,12.75
2023-05-20T10:12:19.511Z,9.98
2023-05-20T10:15:01.139Z,15.63
2023-05-20T10:17:37.465Z,15.30
2023-05-20T10:20:11.830Z,11.60
2023-05-20T10:22:41.450Z,14.50
2023-05-20T10:25:26.666Z,13.30
2023-05-20T10:28:07.807Z,11.60
2023-05-20T10:30:36.672Z,10.00
2023-05-20T10:33:07.077Z,10.80
2023-05-20T10:35:35.355Z,17.13
2023-05-20T10:38:12.543Z,12.07
2023-05-20T10:40:41.245Z,12.52
2023-05-20T10:43:13.658Z,11.95
2023-05-20T10:45:51.851Z,9.07
2023-05-20T10:48:25.556Z,10.85
2023-05-20T10:50:58.000Z,11.68
2023-05-20T10:53:33.682Z,13.33
2023-05-20T10:56:02.718Z,11.48
2023-05-20T10:58:38.403Z,11.77
2023-05-20T11:01:06.575Z,12.13
2023-05-20T11:03:36.318Z,10.30
2023-05-20T11:06:12.625Z,12.15
2023-05-20T11:08:43.984Z,11.15
2023-05-20T11:11:12.399Z,9.27
2023-05-20T11:13:40.667Z,14.38
2023-05-20T11:16:08.800Z,11.95
2023-05-20T11:18:36.884Z,11.50
2023-05-20T11:21:05.098Z,9.95
2023-05-20T11:23:33.617Z,11.98
2023-05-20T11:26:03.560Z,10.38
2023-05-20T11:28:33.267Z,10.60
2023-05-20T11:31:01.511Z,9.93
2023-05-20T11:33:32.461Z,14.35
2023-05-20T11:36:00.463Z,11.25
2023-05-20T11:38:29.175Z,11.57
2023-05-20T11:40:57.560Z,13.38
2023-05-20T11:43:27.433Z,13.95
2023-05-20T11:45:57.631Z,11.25
2023-05-20T11:48:26.609Z,15.52
2023-05-20T11:50:56.836Z,13.48
2023-05-20T11:53:30.849Z,10.35
2023-05-20T11:56:00.176Z,11.75
2023-05-20T11:58:31.343Z,19.50
2023-05-20T12:01:09.626Z,9.57
2023-05-20T12:03:47.961Z,11.50
2023-05-20T12:06:16.132Z,10.73
2023-05-20T12:08:45.314Z,11.20
2023-05-20T12:11:13.380Z,11.68
2023-05-20T12:13:42.796Z,13.30
2023-05-20T12:16:11.274Z,12.13
2023-05-20T12:18:39.229Z,10.02
2023-05-20T12:21:07.300Z,11.82
2023-05-20T12:23:35.206Z,11.50
2023-05-20T12:26:03.259Z,11.00
2023-05-20T12:28:32.154Z,12.27
2023-05-20T12:31:01.597Z,12.15
2023-05-20T12:33:29.580Z,12.57
2023-05-20T12:35:57.860Z,14.10
2023-05-20T12:38:28.273Z,14.13
2023-05-20T12:43:26.764Z,13.75
2023-05-20T12:45:56.030Z,12.27
2023-05-20T12:48:25.564Z,10.05
2023-05-20T12:50:53.750Z,12.48
2023-05-20T12:53:22.430Z,13.65
2023-05-20T12:55:50.355Z,12.15
2023-05-20T12:58:26.109Z,10.13
2023-05-20T13:01:02.357Z,11.95
2023-05-20T13:03:33.846Z,12.32
2023-05-20T13:06:01.820Z,14.38
2023-05-20T13:08:34.758Z,16.20
2023-05-20T13:11:02.623Z,12.88
2023-05-20T13:13:31.385Z,13.27
2023-05-20T13:15:59.456Z,11.02
2023-05-20T13:18:27.417Z,14.85
2023-05-20T13:20:57.463Z,11.18
2023-05-20T13:23:25.398Z,12.75
2023-05-20T13:25:53.354Z,12.90
2023-05-20T13:28:22.062Z,11.82
2023-05-20T13:30:49.958Z,11.55
2023-05-20T13:33:18.225Z,12.98
2023-05-20T13:35:46.159Z,9.07
2023-05-20T13:38:15.469Z,12.18
2023-05-20T13:40:43.525Z,10.45
2023-05-20T13:43:11.578Z,10.05
2023-05-20T13:45:39.827Z,11.07
2023-05-20T13:48:07.985Z,12.02
2023-05-20T13:50:36.138Z,10.93
2023-05-20T13:53:04.707Z,12.13
2023-05-20T13:55:33.955Z,10.30
2023-05-20T13:58:01.845Z,14.02
2023-05-20T14:00:29.777Z,9.60
2023-05-20T14:02:57.703Z,8.75
2023-05-20T14:05:25.664Z,9.85
2023-05-20T14:07:53.535Z,12.45
2023-05-20T14:10:21.556Z,12.45
2023-05-20T14:12:50.866Z,9.13
2023-05-20T14:15:18.756Z,11.38
2023-05-20T14:17:46.657Z,10.40
2023-05-20T14:20:14.818Z,11.93
2023-05-20T14:22:42.845Z,10.95
2023-05-20T14:25:10.955Z,12.45
2023-05-20T14:27:38.841Z,8.50
2023-05-20T14:30:09.782Z,10.43
2023-05-20T14:32:38.019Z,10.00
2023-05-20T14:35:06.836Z,8.77
2023-05-20T14:37:34.738Z,8.45
2023-05-20T14:40:03.392Z,7.95
2023-05-20T14:42:31.261Z,8.43
2023-05-20T14:44:59.213Z,9.48
2023-05-20T14:47:28.591Z,9.88
2023-05-20T14:49:57.924Z,9.77
2023-05-20T14:52:25.942Z,13.30
2023-05-20T14:54:53.962Z,10.48
2023-05-20T14:57:21.999Z,10.40
2023-05-20T14:59:52.468Z,9.90
2023-05-20T15:02:20.450Z,10.63
2023-05-20T15:04:50.412Z,9.50
2023-05-20T15:07:18.327Z,11.00
2023-05-20T15:09:46.314Z,8.75
2023-05-20T15:12:14.191Z,10.88
2023-05-20T15:14:42.050Z,10.30
2023-05-20T15:17:09.991Z,9.95
2023-05-20T15:19:41.264Z,6.15
2023-05-20T15:22:10.900Z,8.93
2023-05-20T15:24:38.804Z,8.25
2023-05-20T15:27:06.963Z,12.43
2023-05-20T15:29:35.057Z,11.20
2023-05-20T15:32:02.945Z,9.15
2023-05-20T15:34:30.840Z,6.63
2023-05-20T15:36:58.729Z,9.40
2023-05-20T15:39:28.352Z,10.55
2023-05-20T15:41:56.311Z,7.00
2023-05-20T15:44:24.156Z,10.70
2023-05-20T15:46:52.414Z,8.85
2023-05-20T15:49:20.503Z,11.27
2023-05-20T15:52:11.851Z,9.35
2023-05-20T15:54:38.042Z,8.60
2023-05-20T15:57:06.694Z,9.70
2023-05-20T15:59:34.790Z,9.73
2023-05-20T16:02:02.958Z,12.93
2023-05-20T16:04:31.198Z,7.07
2023-05-20T16:06:59.324Z,9.23
2023-05-20T16:09:27.361Z,13.05
2023-05-20T16:11:57.177Z,9.15
2023-05-20T16:14:25.212Z,7.65
2023-05-20T16:16:53.259Z,9.55
2023-05-20T16:19:21.411Z,8.68
2023-05-20T16:21:49.472Z,8.25
2023-05-20T16:24:17.498Z,9.73
2023-05-20T16:26:45.623Z,9.80
2023-05-20T16:29:16.501Z,8.93
2023-05-20T16:31:46.604Z,6.20
2023-05-20T16:34:16.397Z,7.80
2023-05-20T16:36:46.311Z,10.32
2023-05-20T16:39:14.864Z,11.93
2023-05-20T16:41:43.259Z,9.48
2023-05-20T16:44:11.537Z,7.13
2023-05-20T16:46:40.972Z,7.18
2023-05-20T16:49:08.967Z,6.50
2023-05-20T16:51:37.078Z,8.45
2023-05-20T16:54:05.217Z,10.23
2023-05-20T16:56:35.301Z,8.90
2023-05-20T16:59:03.578Z,8.15
2023-05-20T17:01:32.068Z,8.10
2023-05-20T17:04:01.489Z,11.15
2023-05-20T17:06:33.968Z,11.35
2023-05-20T17:09:03.026Z,12.47
2023-05-20T17:11:31.001Z,8.30
2023-05-20T17:13:58.881Z,15.00
2023-05-20T17:16:26.851Z,9.02
2023-05-20T17:18:54.825Z,6.22
2023-05-20T17:21:24.180Z,9.57
2023-05-20T17:23:52.137Z,7.40
2023-05-20T17:26:22.236Z,8.38
2023-05-20T17:28:50.107Z,7.45
2023-05-20T17:31:18.013Z,7.32
2023-05-20T17:33:46.279Z,7.90
2023-05-20T17:36:16.161Z,14.48
2023-05-20T17:38:45.501Z,6.95
2023-05-20T17:41:13.423Z,9.57
2023-05-20T17:43:41.318Z,9.18
2023-05-20T17:46:09.195Z,9.80
2023-05-20T17:48:37.099Z,14.43
2023-05-20T17:51:05.658Z,9.50
2023-05-20T17:53:33.552Z,9.88
2023-05-20T17:56:02.802Z,9.20
2023-05-20T17:58:31.494Z,7.53
2023-05-20T18:00:59.401Z,13.88
2023-05-20T18:03:27.805Z,8.95
2023-05-20T18:05:56.282Z,11.45
2023-05-20T18:08:25.319Z,9.02
2023-05-20T18:10:53.567Z,9.30
2023-05-20T18:13:22.829Z,11.35
2023-05-20T18:15:51.082Z,9.10
2023-05-20T18:18:19.113Z,12.57
2023-05-20T18:20:47.189Z,13.40
2023-05-20T18:23:15.357Z,10.15
2023-05-20T18:25:43.644Z,10.60
2023-05-20T18:28:13.169Z,11.57
2023-05-20T18:30:42.491Z,9.93
2023-05-20T18:33:10.845Z,8.23
2023-05-20T18:35:39.312Z,13.20
2023-05-20T18:38:07.266Z,9.05
2023-05-20T18:40:35.354Z,11.07
2023-05-20T18:43:03.306Z,10.80
2023-05-20T18:45:31.371Z,9.15
2023-05-20T18:48:00.764Z,9.05
2023-05-20T18:50:28.825Z,12.90
2023-05-20T18:52:56.689Z,10.80
2023-05-20T18:55:24.932Z,10.00
2023-05-20T18:57:52.998Z,25.40
2023-05-20T19:00:21.317Z,11.68
2023-05-20T19:02:49.244Z,10.70
2023-05-20T19:05:19.691Z,11.52
2023-05-20T19:07:47.673Z,9.25
2023-05-20T19:10:16.195Z,8.43
2023-05-20T19:12:44.675Z,7.72
2023-05-20T19:15:12.847Z,12.55
2023-05-20T19:17:40.812Z,12.77
2023-05-20T19:20:10.490Z,9.82
2023-05-20T19:22:39.785Z,10.18
2023-05-20T19:25:08.678Z,9.60
2023-05-20T19:27:36.709Z,8.63
2023-05-20T19:30:05.431Z,9.65
2023-05-20T19:32:33.367Z,9.63
2023-05-20T19:35:01.261Z,7.70
2023-05-20T19:37:29.109Z,17.02
2023-05-20T19:39:58.425Z,11.55
2023-05-20T19:42:26.364Z,8.23
2023-05-20T19:44:55.009Z,8.40
2023-05-20T19:47:23.038Z,7.88
2023-05-20T19:49:51.041Z,8.55
2023-05-20T19:52:19.949Z,9.63
2023-05-20T19:54:48.564Z,8.43
2023-05-20T19:57:17.857Z,11.88
2023-05-20T19:59:45.794Z,11.07
2023-05-20T20:02:14.832Z,7.97
2023-05-20T20:04:43.087Z,9.13
2023-05-20T20:07:11.045Z,12.32
2023-05-20T20:09:38.953Z,10.50
2023-05-20T20:12:07.923Z,14.80
2023-05-20T20:14:38.026Z,10.43
2023-05-20T20:17:06.226Z,13.25
2023-05-20T20:19:34.205Z,11.38
2023-05-20T20:22:02.149Z,8.65
2023-05-20T20:24:30.053Z,10.27
2023-05-20T20:26:58.364Z,10.55
2023-05-20T20:29:26.743Z,11.80
2023-05-20T20:31:56.582Z,11.38
2023-05-20T20:34:24.482Z,8.68
2023-05-20T20:36:53.156Z,13.00
2023-05-20T20:39:22.567Z,10.52
2023-05-20T20:41:51.431Z,11.80
2023-05-20T20:44:22.414Z,11.35
2023-05-20T20:46:51.506Z,12.85
2023-05-20T20:49:21.992Z,10.90
2023-05-20T20:51:51.362Z,11.65
2023-05-20T20:54:19.384Z,10.88
2023-05-20T20:56:47.345Z,10.55
2023-05-20T20:59:15.990Z,12.85
2023-05-20T21:01:45.132Z,10.45
2023-05-20T21:04:14.001Z,11.88
2023-05-20T21:06:45.970Z,14.35
2023-05-20T21:09:14.094Z,13.75
2023-05-20T21:11:42.966Z,13.43
2023-05-20T21:14:11.164Z,11.07
2023-05-20T21:16:39.233Z,14.05
2023-05-20T21:19:07.222Z,14.07
2023-05-20T21:21:35.218Z,10.60
2023-05-20T21:24:04.656Z,13.98
2023-05-20T21:26:32.536Z,13.77
2023-05-20T21:29:00.507Z,12.77
2023-05-20T21:31:28.580Z,13.35
2023-05-20T21:33:56.547Z,9.63
2023-05-20T21:36:24.438Z,14.52
2023-05-20T21:38:52.415Z,12.93
2023-05-20T21:41:23.576Z,9.65
2023-05-20T21:43:51.662Z,13.48
2023-05-20T21:46:19.607Z,13.98
2023-05-20T21:48:47.560Z,13.13
2023-05-20T21:51:15.590Z,14.60
2023-05-20T21:53:43.634Z,11.85
2023-05-20T21:56:11.533Z,12.60
2023-05-20T21:58:41.898Z,13.45
2023-05-20T22:01:10.550Z,15.93
2023-05-20T22:03:39.950Z,13.00
2023-05-20T22:06:08.301Z,13.27
2023-05-20T22:08:36.305Z,11.20
2023-05-20T22:11:07.398Z,11.65
2023-05-20T22:13:41.244Z,15.57
2023-05-20T22:16:11.279Z,13.43
2023-05-20T22:18:39.675Z,11.80
2023-05-20T22:21:07.656Z,16.83
2023-05-20T22:23:35.599Z,15.32
2023-05-20T22:26:04.921Z,14.85
2023-05-20T22:28:32.972Z,17.92
2023-05-20T22:31:01.399Z,21.08
2023-05-20T22:33:30.792Z,15.20
2023-05-20T22:35:59.522Z,14.20
2023-05-20T22:38:29.288Z,15.77
2023-05-20T22:40:57.301Z,16.55
2023-05-20T22:43:26.335Z,15.88
2023-05-20T22:45:54.296Z,19.95
2023-05-20T22:48:23.045Z,17.00
2023-05-20T22:50:54.026Z,19.20
2023-05-20T22:53:21.887Z,20.30
2023-05-20T22:55:49.937Z,16.73
2023-05-20T22:58:17.792Z,18.33
2023-05-20T23:00:46.011Z,17.30
2023-05-20T23:03:14.100Z,17.00
2023-05-20T23:05:42.002Z,18.80
2023-05-20T23:08:11.280Z,17.33
2023-05-20T23:10:39.465Z,16.08
2023-05-20T23:13:07.346Z,19.15
2023-05-20T23:15:35.361Z,17.17
2023-05-20T23:18:03.631Z,16.67
2023-05-20T23:20:31.524Z,19.30
2023-05-20T23:23:05.569Z,18.95
2023-05-20T23:25:40.149Z,16.85
2023-05-20T23:28:08.139Z,17.83
2023-05-20T23:30:36.622Z,20.13
2023-05-20T23:33:04.728Z,18.50
2023-05-20T23:35:32.771Z,18.52
2023-05-20T23:38:00.764Z,18.63
2023-05-20T23:40:28.696Z,19.80
2023-05-20T23:42:57.910Z,21.90
2023-05-20T23:45:25.978Z,20.95
2023-05-20T23:47:55.515Z,20.75
2023-05-20T23:50:23.717Z,19.60
2023-05-20T23:52:52.215Z,19.70
2023-05-20T23:55:20.159Z,18.65
2023-05-20T23:57:48.083Z,20.55
